Time;durP1;ratioP1;P1;durP2;ratioP2;P2;SDS_P1;SDS_P2;PMS_P1;PMS_P2;Temp;Humidity;BMP_temperature;BMP_pressure;BME280_temperature;BME280_humidity;BME280_pressure;Samples;Min_cycle;Max_cycle;Signal;HPM_P1;HPM_P2
2021/11/16 00:01:40;;;;;;;65.35;22.83;;;;;;;5.50;90.03;102725.94;5064072;28;20064;-64
2021/11/16 00:04:06;;;;;;;63.83;23.77;;;;;;;5.51;90.84;102719.81;5072821;28;20097;-72
2021/11/16 00:06:33;;;;;;;63.03;21.88;;;;;;;5.51;90.41;102719.81;5074548;28;20473;-69
2021/11/16 00:08:58;;;;;;;65.35;23.08;;;;;;;5.46;90.47;102716.28;5075536;28;20477;-67
2021/11/16 00:11:23;;;;;;;65.55;22.52;;;;;;;5.47;90.07;102711.88;5092786;28;20115;-68
2021/11/16 00:13:49;;;;;;;74.20;23.63;;;;;;;5.44;89.52;102704.88;5069897;28;20388;-67
2021/11/16 00:16:15;;;;;;;71.55;23.52;;;;;;;5.41;89.99;102702.22;5054072;28;20036;-67
2021/11/16 00:18:41;;;;;;;59.40;21.67;;;;;;;5.41;89.69;102697.84;5054312;28;20029;-68
2021/11/16 00:21:08;;;;;;;65.80;23.88;;;;;;;5.45;90.27;102697.84;5071722;28;20128;-68
2021/11/16 00:23:35;;;;;;;67.93;24.63;;;;;;;5.38;89.97;102705.72;5069392;28;20028;-68
2021/11/16 00:26:07;;;;;;;63.28;23.45;;;;;;;5.38;90.46;102700.47;5054579;28;20094;-69
2021/11/16 00:28:33;;;;;;;61.63;22.63;;;;;;;5.34;90.90;102703.91;5054188;28;20025;-67
2021/11/16 00:30:59;;;;;;;65.72;23.63;;;;;;;5.31;90.89;102696.03;5064853;28;20052;-68
2021/11/16 00:33:27;;;;;;;65.50;23.73;;;;;;;5.33;91.63;102685.50;5073801;28;20377;-68
2021/11/16 00:35:53;;;;;;;68.05;24.23;;;;;;;5.34;91.38;102689.91;5057846;28;20043;-68
2021/11/16 00:38:19;;;;;;;58.45;23.08;;;;;;;5.30;90.67;102681.13;5053819;28;20056;-68
2021/11/16 00:40:44;;;;;;;59.85;23.95;;;;;;;5.20;90.65;102689.81;5057784;28;20032;-66
2021/11/16 00:43:11;;;;;;;62.00;22.90;;;;;;;5.19;92.38;102694.19;5073722;28;20369;-68
2021/11/16 00:45:39;;;;;;;68.18;24.58;;;;;;;5.23;91.66;102681.94;5065116;28;20028;-69
2021/11/16 00:48:05;;;;;;;60.08;23.65;;;;;;;5.27;89.95;102688.09;5053585;28;20063;-67
2021/11/16 00:50:32;;;;;;;60.42;22.00;;;;;;;5.25;90.90;102680.22;5053886;28;20036;-68
2021/11/16 00:52:58;;;;;;;65.05;24.23;;;;;;;5.27;90.49;102680.22;5070249;28;20123;-68
2021/11/16 00:55:24;;;;;;;63.13;24.50;;;;;;;5.28;90.64;102671.47;5072043;28;20060;-66
2021/11/16 00:57:49;;;;;;;62.30;23.75;;;;;;;5.29;90.20;102673.25;5053419;28;20044;-68
2021/11/16 01:00:16;;;;;;;65.03;24.45;;;;;;;5.30;90.47;102682.88;5053721;28;20036;-67
2021/11/16 01:02:42;;;;;;;66.93;24.17;;;;;;;5.25;90.59;102686.34;5062590;28;20033;-67
2021/11/16 01:05:11;;;;;;;68.57;24.98;;;;;;;5.19;90.82;102696.81;5073587;28;20108;-67
2021/11/16 01:07:37;;;;;;;55.47;22.20;;;;;;;5.25;90.21;102701.22;5058447;28;20032;-67
2021/11/16 01:10:04;;;;;;;65.47;23.27;;;;;;;5.15;89.84;102699.41;5053365;28;20025;-68
2021/11/16 01:12:30;;;;;;;61.05;23.30;;;;;;;5.11;90.83;102697.63;5055375;28;20029;-67
2021/11/16 01:14:57;;;;;;;60.67;23.80;;;;;;;5.15;90.36;102696.78;5073583;28;20024;-68
2021/11/16 01:17:23;;;;;;;63.75;23.20;;;;;;;5.10;90.10;102686.22;5066453;28;20033;-67
2021/11/16 01:19:48;;;;;;;66.75;23.65;;;;;;;5.04;91.52;102691.44;5053090;28;20036;-67
2021/11/16 01:22:14;;;;;;;67.00;24.35;;;;;;;5.01;91.55;102683.53;5053112;28;20158;-67
2021/11/16 01:24:41;;;;;;;69.10;24.13;;;;;;;5.03;91.96;102692.31;5068129;28;20023;-67
2021/11/16 01:27:07;;;;;;;62.13;23.42;;;;;;;5.08;92.01;102680.09;5073041;28;20028;-68
2021/11/16 01:29:37;;;;;;;65.97;23.63;;;;;;;5.07;91.90;102687.06;5071375;28;20028;-67
2021/11/16 01:32:04;;;;;;;62.17;23.00;;;;;;;5.02;91.15;102683.53;5072924;28;20036;-67
2021/11/16 01:34:31;;;;;;;64.50;22.52;;;;;;;5.03;92.25;102673.94;5073551;28;20032;-68
2021/11/16 01:36:57;;;;;;;57.50;22.20;;;;;;;5.06;90.92;102676.56;5072872;28;20025;-68
2021/11/16 01:39:23;;;;;;;63.70;23.38;;;;;;;5.04;91.57;102676.56;5061119;28;20035;-67
2021/11/16 01:41:49;;;;;;;67.10;23.23;;;;;;;4.97;91.50;102669.50;5052853;28;20373;-67
2021/11/16 01:44:15;;;;;;;59.58;23.15;;;;;;;4.94;92.08;102674.72;5052972;28;20017;-65
2021/11/16 01:46:41;;;;;;;57.55;22.70;;;;;;;4.99;92.63;102664.28;5074116;28;20039;-67
2021/11/16 01:49:08;;;;;;;60.03;22.23;;;;;;;5.03;92.12;102663.44;5068404;28;20473;-68
2021/11/16 01:51:34;;;;;;;62.75;22.30;;;;;;;5.03;91.82;102669.53;5052827;28;20033;-68
2021/11/16 01:54:02;;;;;;;57.42;21.45;;;;;;;5.03;91.99;102666.91;5052540;28;20086;-67
2021/11/16 01:56:47;;;;;;;69.10;22.90;;;;;;;5.00;91.27;102655.50;5067093;28;20040;-67
2021/11/16 01:59:18;;;;;;;64.90;21.80;;;;;;;4.96;91.74;102665.09;5033403;28;20470;-66
2021/11/16 02:01:43;;;;;;;56.90;21.95;;;;;;;4.95;91.62;102663.38;5052906;28;20021;-68
2021/11/16 02:04:09;;;;;;;57.15;22.42;;;;;;;4.90;92.62;102665.94;5052203;28;20039;-68
2021/11/16 02:06:37;;;;;;;58.28;21.83;;;;;;;4.91;92.64;102659.84;5062213;28;20166;-67
2021/11/16 02:09:07;;;;;;;61.38;23.13;;;;;;;4.91;92.53;102651.06;5072565;28;20035;-69
2021/11/16 02:11:32;;;;;;;59.70;21.83;;;;;;;4.97;92.73;102651.13;5058755;28;20036;-68
2021/11/16 02:13:58;;;;;;;61.72;22.13;;;;;;;4.94;91.95;102648.47;5052432;28;20033;-67
2021/11/16 02:16:24;;;;;;;54.83;22.77;;;;;;;4.93;92.65;102644.09;5055857;28;20025;-67
2021/11/16 02:18:49;;;;;;;62.75;21.52;;;;;;;4.93;92.41;102642.31;5072472;28;20039;-68
2021/11/16 02:21:16;;;;;;;61.83;22.00;;;;;;;4.92;92.06;102637.06;5067152;28;20032;-67
2021/11/16 02:23:43;;;;;;;64.40;22.73;;;;;;;4.92;92.38;102639.69;5052617;28;20021;-67
2021/11/16 02:26:09;;;;;;;65.10;22.08;;;;;;;4.92;92.33;102634.44;5052585;28;20143;-67
2021/11/16 02:28:35;;;;;;;64.03;21.17;;;;;;;4.91;91.91;102636.22;5068614;28;20478;-69
2021/11/16 02:31:03;;;;;;;61.60;21.95;;;;;;;4.93;91.72;102630.97;5072301;28;20051;-69
2021/11/16 02:33:28;;;;;;;60.28;22.45;;;;;;;4.95;91.58;102617.84;5053246;28;20037;-67
2021/11/16 02:35:54;;;;;;;58.67;21.85;;;;;;;4.94;91.74;102627.47;5052013;28;20061;-68
2021/11/16 02:38:20;;;;;;;58.33;21.60;;;;;;;4.96;92.12;102630.97;5061380;28;20581;-67
2021/11/16 02:40:46;;;;;;;52.25;19.85;;;;;;;5.02;91.80;102632.78;5072484;28;20058;-67
2021/11/16 02:43:12;;;;;;;55.92;20.42;;;;;;;5.04;91.89;102625.81;5060815;28;20025;-68
2021/11/16 02:45:38;;;;;;;55.53;18.83;;;;;;;5.01;91.86;102616.16;5052195;28;20060;-67
2021/11/16 02:48:13;;;;;;;52.17;21.35;;;;;;;5.04;91.54;102621.41;5062470;28;20056;-67
2021/11/16 02:51:00;;;;;;;53.30;20.67;;;;;;;5.08;91.21;102625.81;5093415;28;20051;-68
2021/11/16 02:53:25;;;;;;;60.92;21.33;;;;;;;5.06;90.35;102622.31;5079050;28;20109;-68
2021/11/16 02:55:52;;;;;;;54.55;19.95;;;;;;;5.02;89.68;102630.16;5056174;28;20099;-68
2021/11/16 02:58:19;;;;;;;57.13;20.75;;;;;;;5.00;89.91;102634.50;5055971;28;20083;-68
2021/11/16 03:00:50;;;;;;;55.10;21.45;;;;;;;5.00;90.31;102634.50;5074079;28;20090;-68
2021/11/16 03:03:19;;;;;;;62.95;21.50;;;;;;;4.97;89.55;102630.09;5074865;28;20024;-68
2021/11/16 03:05:45;;;;;;;60.10;21.55;;;;;;;5.02;89.55;102627.53;5055913;28;20143;-68
2021/11/16 03:08:21;;;;;;;62.03;22.30;;;;;;;4.97;90.04;102630.09;5055682;28;20033;-68
2021/11/16 03:10:48;;;;;;;56.75;21.70;;;;;;;4.97;89.30;102630.09;5068996;28;20036;-68
2021/11/16 03:13:14;;;;;;;59.65;22.88;;;;;;;5.00;90.43;102630.16;5075671;28;20086;-68
2021/11/16 03:15:41;;;;;;;55.95;22.15;;;;;;;4.96;89.53;102614.34;5060475;28;20037;-67
2021/11/16 03:18:07;;;;;;;61.65;23.63;;;;;;;4.95;89.69;102624.00;5055543;28;20021;-67
2021/11/16 03:20:33;;;;;;;59.40;22.38;;;;;;;5.02;90.23;102622.28;5061409;28;20027;-68
2021/11/16 03:23:10;;;;;;;60.63;22.45;;;;;;;5.04;90.25;102617.94;5075778;28;20100;-67
2021/11/16 03:25:40;;;;;;;59.42;22.98;;;;;;;5.02;90.33;102615.28;5066317;28;20419;-67
2021/11/16 03:28:09;;;;;;;61.15;21.40;;;;;;;5.01;90.31;102620.50;5055479;28;20049;-68
2021/11/16 03:30:34;;;;;;;59.70;22.90;;;;;;;4.99;89.84;102620.50;5054826;28;20049;-68
2021/11/16 03:33:00;;;;;;;59.08;21.58;;;;;;;4.99;90.09;102623.13;5093925;28;20077;-67
2021/11/16 03:35:26;;;;;;;55.72;21.60;;;;;;;4.99;89.33;102619.66;5089993;28;20028;-66
2021/11/16 03:37:57;;;;;;;60.13;22.15;;;;;;;4.98;89.96;102621.38;5055037;28;20524;-68
2021/11/16 03:40:24;;;;;;;63.65;22.60;;;;;;;4.95;90.09;102618.75;5055708;28;20035;-67
2021/11/16 03:42:50;;;;;;;57.45;22.42;;;;;;;4.93;90.75;102618.69;5069236;28;20427;-67
2021/11/16 03:45:21;;;;;;;60.72;22.00;;;;;;;4.96;89.88;102624.84;5074966;28;20016;-68
2021/11/16 03:47:46;;;;;;;61.65;21.85;;;;;;;4.93;89.69;102625.72;5059641;28;20079;-69
2021/11/16 03:50:16;;;;;;;61.65;24.88;;;;;;;4.91;89.67;102633.59;5054949;28;20464;-68
2021/11/16 03:52:43;;;;;;;59.13;22.50;;;;;;;4.89;90.34;102635.31;5062504;28;20033;-67
2021/11/16 03:55:10;;;;;;;59.15;21.70;;;;;;;4.91;90.90;102640.56;5075077;28;20028;-68
2021/11/16 03:57:36;;;;;;;59.47;22.52;;;;;;;4.94;90.50;102635.34;5066273;28;20372;-68
2021/11/16 04:00:10;;;;;;;56.47;21.90;;;;;;;4.90;90.00;102639.69;5054684;28;20025;-68
2021/11/16 04:02:35;;;;;;;61.80;22.83;;;;;;;4.86;90.38;102637.91;5055682;28;20067;-67
2021/11/16 04:05:03;;;;;;;61.80;23.45;;;;;;;4.83;89.75;102637.88;5093788;28;20471;-68
2021/11/16 04:07:28;;;;;;;61.08;22.75;;;;;;;4.83;90.43;102637.88;5089814;28;20155;-67
2021/11/16 04:09:54;;;;;;;61.28;22.25;;;;;;;4.84;90.18;102642.25;5054729;28;20113;-67
2021/11/16 04:12:19;;;;;;;64.60;22.55;;;;;;;4.88;90.27;102636.16;5054486;28;20029;-68
2021/11/16 04:14:45;;;;;;;58.38;23.25;;;;;;;4.88;90.33;102649.28;5068766;28;20025;-68
2021/11/16 04:17:10;;;;;;;61.30;22.98;;;;;;;4.89;89.94;102632.69;5066896;28;20037;-68
2021/11/16 04:19:36;;;;;;;56.22;21.67;;;;;;;4.88;89.13;102646.66;5063755;28;20028;-67
2021/11/16 04:22:02;;;;;;;60.00;23.15;;;;;;;4.86;90.33;102643.16;5074525;28;20035;-66
2021/11/16 04:24:27;;;;;;;64.72;22.95;;;;;;;4.85;91.27;102643.16;5075456;28;20396;-68
2021/11/16 04:26:52;;;;;;;63.45;21.98;;;;;;;4.88;90.52;102641.41;5074147;28;20035;-66
2021/11/16 04:29:18;;;;;;;58.33;21.65;;;;;;;4.88;90.12;102636.16;5055125;28;20499;-68
2021/11/16 04:31:44;;;;;;;61.42;22.17;;;;;;;4.86;90.21;102630.03;5054054;28;20155;-67
2021/11/16 04:34:09;;;;;;;66.82;23.33;;;;;;;4.85;90.26;102630.03;5054311;28;20020;-68
2021/11/16 04:36:35;;;;;;;62.05;22.10;;;;;;;4.85;90.12;102640.53;5072738;28;20425;-68
2021/11/16 04:39:01;;;;;;;61.95;22.80;;;;;;;4.86;90.91;102632.66;5062743;28;20052;-68
2021/11/16 04:41:27;;;;;;;66.45;24.27;;;;;;;4.90;90.53;102642.31;5054065;28;20108;-68
2021/11/16 04:43:55;;;;;;;63.45;22.85;;;;;;;4.91;90.84;102636.22;5053881;28;20117;-67
2021/11/16 04:46:21;;;;;;;61.33;23.17;;;;;;;4.87;90.48;102631.81;5065293;28;20043;-68
2021/11/16 05:02:38;;;;;;;55.55;21.05;;;;;;;4.83;90.87;102618.63;5011913;28;20454;-68
2021/11/16 05:05:16;;;;;;;61.65;22.95;;;;;;;4.82;89.86;102628.28;5011753;28;20116;-68
2021/11/16 05:07:49;;;;;;;62.65;22.15;;;;;;;4.85;89.68;102619.53;5012779;28;20077;-68
2021/11/16 05:10:15;;;;;;;56.25;21.23;;;;;;;4.84;90.05;102618.63;5009085;28;20040;-70
2021/11/16 05:12:40;;;;;;;62.22;21.73;;;;;;;4.83;90.28;102618.63;5003244;28;20133;-67
2021/11/16 05:15:15;;;;;;;60.00;22.15;;;;;;;4.79;90.04;102609.84;4992171;28;20026;-68
2021/11/16 05:17:42;;;;;;;60.30;21.55;;;;;;;4.75;89.26;102601.06;4997973;28;20580;-67
2021/11/16 05:20:08;;;;;;;58.90;22.02;;;;;;;4.83;89.47;102609.00;5011589;28;20105;-68
2021/11/16 05:22:34;;;;;;;56.60;20.30;;;;;;;4.82;89.81;102609.91;5009598;28;20133;-67
2021/11/16 05:24:59;;;;;;;56.35;21.35;;;;;;;4.81;90.44;102601.97;5011144;28;20022;-68
2021/11/16 05:27:25;;;;;;;61.45;21.80;;;;;;;4.80;90.32;102609.00;5011650;28;20184;-68
2021/11/16 05:29:50;;;;;;;61.65;22.15;;;;;;;4.83;89.40;102611.63;5012235;28;20045;-68
2021/11/16 05:32:16;;;;;;;61.03;21.77;;;;;;;4.84;89.81;102604.66;5009542;28;20029;-68
2021/11/16 05:34:42;;;;;;;57.83;21.92;;;;;;;4.83;90.65;102600.25;5011147;28;20033;-68
2021/11/16 05:37:08;;;;;;;55.40;22.30;;;;;;;4.84;89.65;102608.13;5042056;28;20567;-68
2021/11/16 05:39:34;;;;;;;62.78;21.80;;;;;;;4.81;89.28;102607.22;5063809;28;20024;-67
2021/11/16 05:42:00;;;;;;;55.83;21.15;;;;;;;4.80;90.05;102616.88;5070339;28;20350;-68
2021/11/16 05:44:26;;;;;;;59.25;21.48;;;;;;;4.76;89.93;102620.34;5052948;28;20028;-68
2021/11/16 05:46:51;;;;;;;62.08;21.05;;;;;;;4.74;90.23;102615.09;5059023;28;20032;-68
2021/11/16 05:49:16;;;;;;;59.17;21.77;;;;;;;4.77;90.56;102606.34;5072629;28;20024;-68
2021/11/16 05:51:42;;;;;;;60.67;21.70;;;;;;;4.81;89.39;102609.84;5090228;28;20040;-68
2021/11/16 05:54:15;;;;;;;54.13;20.90;;;;;;;4.90;89.04;102612.56;5044547;28;20044;-68
2021/11/16 05:56:40;;;;;;;59.03;20.88;;;;;;;4.87;88.04;102609.91;5052829;28;20085;-68
2021/11/16 05:59:06;;;;;;;51.63;20.17;;;;;;;4.82;88.14;102606.38;5052584;28;20544;-68
2021/11/16 06:01:34;;;;;;;50.65;18.63;;;;;;;4.82;88.83;102620.41;5069165;28;20029;-68
2021/11/16 06:04:00;;;;;;;58.72;20.60;;;;;;;4.78;89.07;102615.09;5064652;28;20025;-68
2021/11/16 06:06:27;;;;;;;55.58;20.58;;;;;;;4.75;89.64;102614.19;5052599;28;20536;-67
2021/11/16 06:08:54;;;;;;;56.45;21.08;;;;;;;4.76;89.92;102607.22;5052502;28;20078;-68
2021/11/16 06:11:22;;;;;;;52.95;19.45;;;;;;;4.77;89.69;102608.97;5061782;28;20028;-69
2021/11/16 06:13:48;;;;;;;51.63;19.52;;;;;;;4.76;89.43;102607.22;5071394;28;20028;-68
2021/11/16 06:16:14;;;;;;;57.55;22.17;;;;;;;4.78;89.31;102607.22;5052330;28;20029;-68
2021/11/16 06:18:40;;;;;;;55.70;20.77;;;;;;;4.80;90.01;102595.88;5052031;28;20032;-68
2021/11/16 06:21:07;;;;;;;55.22;21.58;;;;;;;4.80;89.79;102601.13;5054216;28;20035;-68
2021/11/16 06:23:33;;;;;;;60.80;19.92;;;;;;;4.83;89.50;102598.50;5076411;28;20578;-68
2021/11/16 06:26:02;;;;;;;56.58;20.58;;;;;;;4.86;90.00;102593.28;5062687;28;20025;-68
2021/11/16 06:28:27;;;;;;;59.00;20.92;;;;;;;4.88;89.60;102591.53;5056381;28;20052;-68
2021/11/16 06:30:52;;;;;;;49.25;18.52;;;;;;;4.90;89.39;102595.06;5056123;28;20080;-68
2021/11/16 06:33:20;;;;;;;50.72;18.63;;;;;;;4.86;87.99;102592.41;5071357;28;20031;-68
2021/11/16 06:35:45;;;;;;;47.70;18.02;;;;;;;4.87;87.58;102586.28;5069815;28;20427;-68
2021/11/16 06:38:10;;;;;;;55.72;19.35;;;;;;;4.83;87.44;102593.25;5056106;28;20029;-69
2021/11/16 06:40:37;;;;;;;48.42;18.75;;;;;;;4.83;87.65;102592.38;5055909;28;20029;-68
2021/11/16 06:43:02;;;;;;;48.67;18.27;;;;;;;4.81;88.52;102597.63;5063265;28;20142;-67
2021/11/16 06:45:27;;;;;;;49.92;18.35;;;;;;;4.77;88.22;102593.22;5074955;28;20055;-67
2021/11/16 06:47:53;;;;;;;52.08;19.05;;;;;;;4.84;nan;102595.00;5073814;28;20052;-67
2021/11/16 06:50:18;;;;;;;50.83;18.42;;;;;;;4.84;88.01;102588.91;5075886;28;20081;-68
2021/11/16 06:52:45;;;;;;;53.92;18.40;;;;;;;4.82;87.88;102594.16;5073511;28;20020;-66
2021/11/16 06:55:10;;;;;;;53.05;19.23;;;;;;;4.81;87.71;102589.75;5075944;28;20058;-68
2021/11/16 06:57:36;;;;;;;49.17;17.50;;;;;;;4.82;88.58;102588.00;5066602;28;20090;-68
2021/11/16 07:00:06;;;;;;;50.70;18.50;;;;;;;4.82;87.67;102588.91;5055703;28;20036;-68
2021/11/16 07:02:31;;;;;;;50.72;18.05;;;;;;;4.85;87.76;102591.53;5070033;28;20033;-68
2021/11/16 07:04:57;;;;;;;50.90;18.77;;;;;;;4.82;88.28;102588.91;5076442;28;20036;-69
2021/11/16 07:07:22;;;;;;;53.28;19.52;;;;;;;4.81;88.00;102589.75;5075738;28;20033;-69
2021/11/16 07:09:47;;;;;;;53.60;19.02;;;;;;;4.82;87.75;102596.78;5075567;28;20085;-68
2021/11/16 07:12:25;;;;;;;55.80;19.65;;;;;;;4.85;86.42;102602.03;5066070;28;20027;-68
2021/11/16 07:14:51;;;;;;;46.85;18.77;;;;;;;4.78;87.64;102591.47;5061342;28;20025;-68
2021/11/16 07:17:18;;;;;;;49.95;18.33;;;;;;;4.80;87.93;102592.38;5060416;28;20024;-68
2021/11/16 07:19:56;;;;;;;52.28;19.67;;;;;;;4.75;87.73;102585.31;5055512;28;20129;-67
2021/11/16 07:22:31;;;;;;;48.13;18.80;;;;;;;4.73;89.17;102588.81;5055383;28;20461;-69
2021/11/16 07:25:03;;;;;;;55.22;19.10;;;;;;;4.76;89.26;102589.72;5056176;28;20029;-68
2021/11/16 07:27:36;;;;;;;;;;;;;;;4.80;88.76;102582.75;5072786;28;20492;-68
2021/11/16 07:30:04;;;;;;;52.92;19.05;;;;;;;4.79;87.91;102585.38;5054877;28;19928;-68
2021/11/16 07:32:40;;;;;;;52.00;19.42;;;;;;;4.79;88.45;102583.59;5054294;28;20488;-67
2021/11/16 07:35:07;;;;;;;52.13;18.70;;;;;;;4.76;88.33;102594.97;5054927;28;20128;-66
2021/11/16 07:37:36;;;;;;;48.95;18.15;;;;;;;4.78;88.13;102597.59;5067504;28;20029;-67
2021/11/16 07:40:10;;;;;;;53.17;18.90;;;;;;;4.77;88.43;102595.84;5054581;28;20040;-66
2021/11/16 07:42:46;;;;;;;50.90;18.55;;;;;;;4.75;88.82;102587.94;5054734;28;20029;-67
2021/11/16 07:45:14;;;;;;;54.55;18.88;;;;;;;4.81;88.23;102589.75;5074780;28;20032;-67
2021/11/16 07:47:39;;;;;;;47.92;18.05;;;;;;;4.81;88.58;102589.75;5044748;28;20068;-67
2021/11/16 07:50:07;;;;;;;52.35;18.35;;;;;;;4.84;88.20;102591.53;5074946;28;20448;-67
2021/11/16 07:52:33;;;;;;;44.83;17.30;;;;;;;4.84;88.27;102596.78;5074604;28;20035;-67
2021/11/16 07:54:58;;;;;;;51.03;17.33;;;;;;;4.85;88.06;102601.16;5075371;28;20107;-67
2021/11/16 07:57:24;;;;;;;53.15;19.35;;;;;;;4.87;88.00;102602.03;5074575;28;20067;-68
2021/11/16 07:59:55;;;;;;;50.78;18.92;;;;;;;4.86;88.41;102600.28;5081242;28;20020;-67
2021/11/16 08:02:35;;;;;;;51.80;18.67;;;;;;;4.85;87.78;102598.53;5094230;28;20067;-67
2021/11/16 08:10:51;;;;;;;50.97;19.10;;;;;;;4.88;87.94;102602.03;5030731;28;20037;-67
2021/11/16 08:13:26;;;;;;;50.53;19.02;;;;;;;4.85;86.72;102599.41;5029699;28;20150;-66
2021/11/16 08:15:52;;;;;;;49.03;18.17;;;;;;;4.91;87.41;102594.19;4992723;28;20037;-71
2021/11/16 08:18:18;;;;;;;49.55;17.90;;;;;;;4.96;86.89;102593.34;4992779;28;20026;-66
2021/11/16 08:20:44;;;;;;;50.03;18.33;;;;;;;5.01;86.43;102594.25;5018166;28;20107;-68
2021/11/16 08:23:10;;;;;;;52.60;18.35;;;;;;;5.00;86.11;102593.41;5032170;28;20044;-67
2021/11/16 08:25:37;;;;;;;47.80;18.75;;;;;;;5.01;85.71;102579.41;5012290;28;20042;-67
2021/11/16 08:28:04;;;;;;;50.67;19.00;;;;;;;5.01;86.23;102578.50;5002847;28;20332;-65
2021/11/16 08:30:34;;;;;;;53.17;19.20;;;;;;;5.02;86.07;102575.03;5011109;28;20046;-69
2021/11/16 08:33:01;;;;;;;52.30;20.48;;;;;;;4.98;86.42;102581.13;5013320;28;20046;-67
2021/11/16 08:35:28;;;;;;;52.72;19.08;;;;;;;4.95;86.60;102581.97;5007671;28;20034;-68
2021/11/16 08:38:00;;;;;;;51.47;19.63;;;;;;;4.96;86.46;102570.59;5012372;28;20030;-67
2021/11/16 08:40:29;;;;;;;49.38;17.85;;;;;;;4.98;86.14;102582.00;5073858;28;20028;-68
2021/11/16 08:43:17;;;;;;;49.55;18.75;;;;;;;4.98;86.34;102570.63;5076016;28;20468;-68
2021/11/16 08:45:48;;;;;;;60.30;19.92;;;;;;;4.97;86.26;102577.59;5086843;28;20066;-69
2021/11/16 08:48:17;;;;;;;55.88;20.17;;;;;;;4.96;85.91;102569.72;5073749;28;20078;-68
2021/11/16 08:50:48;;;;;;;54.85;20.05;;;;;;;4.92;86.24;102580.22;5073415;28;20043;-69
2021/11/16 08:53:21;;;;;;;54.35;21.30;;;;;;;4.97;85.92;102569.72;5073949;28;20029;-68
2021/11/16 08:55:47;;;;;;;54.50;20.67;;;;;;;4.96;86.81;102565.34;5063560;28;20116;-68
2021/11/16 08:58:14;;;;;;;51.90;20.23;;;;;;;4.96;86.35;102569.72;5054351;28;20128;-68
2021/11/16 09:00:45;;;;;;;51.83;18.13;;;;;;;4.96;85.44;102570.59;5054392;28;20100;-69
2021/11/16 09:03:17;;;;;;;53.47;18.83;;;;;;;5.00;85.81;102568.88;5053390;28;20025;-68
2021/11/16 09:05:49;;;;;;;55.67;19.65;;;;;;;5.01;86.91;102562.75;5059688;28;20016;-69
2021/11/16 09:08:20;;;;;;;54.38;19.02;;;;;;;5.08;86.87;102567.19;5059726;28;20387;-68
2021/11/16 09:10:48;;;;;;;50.53;18.88;;;;;;;5.11;86.56;102569.81;5053255;28;20033;-68
2021/11/16 09:13:18;;;;;;;58.15;19.48;;;;;;;5.10;86.82;102562.78;5053221;28;20039;-68
2021/11/16 09:15:49;;;;;;;57.30;20.55;;;;;;;5.12;87.54;102562.84;5053035;28;20027;-68
2021/11/16 09:18:28;;;;;;;57.13;19.67;;;;;;;5.12;87.31;102565.47;5066780;28;20476;-68
2021/11/16 09:20:58;;;;;;;49.05;18.40;;;;;;;5.14;85.66;102559.34;5053325;28;20033;-68
2021/11/16 09:23:27;;;;;;;51.45;20.10;;;;;;;5.16;86.21;102564.59;5052777;28;20040;-68
2021/11/16 09:26:05;;;;;;;50.90;18.90;;;;;;;5.27;85.79;102569.91;5053390;28;20029;-68
2021/11/16 09:28:38;;;;;;;51.65;19.67;;;;;;;5.30;86.76;102567.31;5075978;28;20025;-68
2021/11/16 09:31:30;;;;;;;50.60;18.58;;;;;;;5.31;86.05;102572.56;5064209;28;20053;-68
2021/11/16 09:33:59;;;;;;;;;;;;;;;5.33;85.08;102564.69;5073171;28;20131;-68
2021/11/16 09:36:32;;;;;;;52.83;18.90;;;;;;;5.35;84.87;102565.56;5072917;28;19962;-68
2021/11/16 09:39:06;;;;;;;48.67;18.58;;;;;;;5.37;85.05;102572.59;5073768;28;20100;-68
2021/11/16 09:41:38;;;;;;;50.33;18.50;;;;;;;5.40;84.68;102567.34;5053022;28;20032;-68
2021/11/16 09:44:05;;;;;;;48.50;19.15;;;;;;;5.41;84.64;102557.72;5052737;28;20029;-68
2021/11/16 09:46:33;;;;;;;50.40;18.98;;;;;;;5.46;85.64;102569.13;5052705;28;20043;-69
2021/11/16 09:49:03;;;;;;;55.40;20.05;;;;;;;5.46;85.21;102566.50;5064167;28;20029;-68
2021/11/16 09:51:29;;;;;;;46.95;18.50;;;;;;;5.51;85.91;102556.00;5057727;28;20048;-68
2021/11/16 09:54:06;;;;;;;52.20;19.73;;;;;;;5.59;85.16;102549.03;5052821;28;20581;-69
2021/11/16 09:56:33;;;;;;;50.17;19.05;;;;;;;5.59;83.78;102549.03;5053129;28;20052;-68
2021/11/16 09:58:59;;;;;;;50.80;19.25;;;;;;;5.52;84.26;102549.88;5058473;28;20024;-68
2021/11/16 10:01:39;;;;;;;53.10;18.33;;;;;;;5.51;85.22;102541.13;5064131;28;20495;-68
2021/11/16 10:04:09;;;;;;;49.35;17.50;;;;;;;5.56;84.40;102547.28;5052381;28;20056;-68
2021/11/16 10:06:35;;;;;;;49.65;18.00;;;;;;;5.61;84.23;102542.00;5052567;28;20108;-68
2021/11/16 10:09:04;;;;;;;46.20;17.45;;;;;;;5.62;84.59;102542.91;5052405;28;20128;-68
2021/11/16 10:11:30;;;;;;;48.10;17.65;;;;;;;5.63;84.59;102540.28;5071059;28;20032;-68
2021/11/16 10:13:55;;;;;;;44.72;18.17;;;;;;;5.69;84.70;102532.41;5052178;28;20396;-68
2021/11/16 10:16:21;;;;;;;50.95;18.80;;;;;;;5.74;84.80;102532.41;5052157;28;20068;-68
2021/11/16 10:18:46;;;;;;;53.90;19.17;;;;;;;5.75;83.88;102531.53;5051932;28;20039;-68
2021/11/16 10:21:14;;;;;;;53.60;19.90;;;;;;;5.70;84.11;102526.28;5066045;28;20052;-68
2021/11/16 10:23:46;;;;;;;50.05;19.73;;;;;;;5.70;84.67;102528.03;5058234;28;20029;-69
2021/11/16 10:26:12;;;;;;;;;;;;;;;5.76;85.02;102528.03;5052680;28;20021;-68
2021/11/16 10:28:41;;;;;;;52.60;19.20;;;;;;;5.81;85.11;102521.03;5052077;28;19966;-70
2021/11/16 10:31:07;;;;;;;54.35;20.15;;;;;;;5.77;85.46;102526.28;5059462;28;20044;-68
2021/11/16 10:33:39;;;;;;;58.47;21.23;;;;;;;5.74;85.85;102529.78;5065708;28;20396;-69
2021/11/16 10:36:06;;;;;;;55.83;22.33;;;;;;;5.73;86.79;102528.06;5052379;28;20055;-69
2021/11/16 10:38:34;;;;;;;56.85;20.17;;;;;;;5.73;86.89;102526.28;5052339;28;20039;-68
2021/11/16 10:41:06;;;;;;;55.97;20.42;;;;;;;5.76;86.83;102517.53;5052420;28;20087;-68
2021/11/16 10:43:43;;;;;;;59.65;22.13;;;;;;;5.71;86.86;102528.03;5089312;28;20028;-68
2021/11/16 10:46:11;;;;;;;54.85;20.95;;;;;;;5.74;87.35;102521.91;5051664;28;20490;-68
2021/11/16 10:48:38;;;;;;;57.55;21.60;;;;;;;5.77;88.02;102519.28;5052099;28;20029;-68
2021/11/16 10:51:07;;;;;;;55.17;20.52;;;;;;;5.81;88.43;102521.03;5052089;28;20056;-68
2021/11/16 10:53:32;;;;;;;57.65;21.25;;;;;;;5.86;88.66;102513.19;5083049;28;20361;-68
2021/11/16 10:56:01;;;;;;;52.60;20.33;;;;;;;5.86;87.19;102511.41;5063414;28;20107;-69
2021/11/16 10:58:40;;;;;;;51.05;20.30;;;;;;;5.85;87.06;102504.41;5051958;28;20021;-68
2021/11/16 11:01:14;;;;;;;59.38;21.70;;;;;;;5.82;87.08;102504.41;5051958;28;20112;-68
2021/11/16 11:03:48;;;;;;;56.13;21.17;;;;;;;5.79;86.59;102493.88;5064206;28;20052;-68
2021/11/16 11:06:26;;;;;;;56.40;22.00;;;;;;;5.87;87.06;102489.50;5061923;28;20049;-68
2021/11/16 11:08:55;;;;;;;60.92;21.50;;;;;;;5.87;86.91;102484.25;5054528;28;20060;-68
2021/11/16 11:11:34;;;;;;;53.90;20.27;;;;;;;5.89;86.72;102471.09;5055876;28;20025;-68
2021/11/16 11:14:05;;;;;;;56.55;20.58;;;;;;;5.91;86.10;102479.88;5046906;28;20480;-68
2021/11/16 11:16:32;;;;;;;56.47;20.75;;;;;;;5.89;86.09;102468.47;5069079;28;20021;-68
2021/11/16 11:18:58;;;;;;;60.55;21.02;;;;;;;5.87;87.40;102467.59;5054978;28;20028;-70
2021/11/16 11:21:35;;;;;;;61.58;22.10;;;;;;;5.83;86.08;102466.72;5055596;28;20044;-68
2021/11/16 11:24:11;;;;;;;53.67;20.70;;;;;;;5.90;86.04;102455.31;5060283;28;20030;-68
2021/11/16 11:26:50;;;;;;;57.08;20.88;;;;;;;5.88;86.83;102461.47;5073979;28;20024;-68
2021/11/16 11:29:42;;;;;;;60.15;21.15;;;;;;;5.95;87.30;102447.44;5055072;28;20083;-68
2021/11/16 11:32:13;;;;;;;51.08;19.70;;;;;;;5.96;86.78;102446.59;5055301;28;20079;-69
2021/11/16 11:34:45;;;;;;;57.72;21.63;;;;;;;5.97;87.52;102440.44;5059435;28;20398;-69
2021/11/16 11:37:18;;;;;;;59.83;20.92;;;;;;;6.02;86.83;102440.47;5073855;28;20043;-68
2021/11/16 11:39:47;;;;;;;53.95;20.27;;;;;;;6.06;86.41;102436.94;5054795;28;20108;-68
2021/11/16 11:42:13;;;;;;;58.97;20.95;;;;;;;6.10;87.33;102436.09;5055079;28;20036;-68
2021/11/16 11:44:46;;;;;;;59.90;21.45;;;;;;;6.11;86.61;102437.81;5036995;28;20098;-68